Terminal Aerodrome Forecast
Issued by NWS

Home | Current Version | Previous Version | Graphics & Text | Print | Product List | Glossary On
Versions: 1 2 3 4 5 6 7 8 9 10 11 12 13 14 15 16 17 18 19 20 21 22 23 24 25 26
195
FTUS43 KUNR 200520
TAFGCC
TAF
KGCC 200520Z 2006/2106 34007KT P6SM BKN250
     FM201300 09005KT P6SM BKN070
     FM210000 02010KT P6SM -SHRA OVC050
     FM210400 05009KT 5SM -SHRA OVC011
     FM210500 05010KT 3SM -SHRASN OVC008=

USA.gov is the U.S. government's official web portal to all federal, state and local government web resources and services.